NWS Home NWS Lubbock West Texas Mesonet Three hour changes as of 0721 AM, Tue Jun 19, 2018

Latest   N   C   S   Daily Sum   3hrΔ   24hrΔ   Soil Data 
Site Map   24hr Precip   72hr Precip   Google Plot


Station Time of Last Temp Now Temp 3h ago Delta-T Dewpoint Now Dewpoint 3hr ago Delta-Td 3hr Press Change (mB)
Reese Center  07:15 AM 69.7 70.6 -0.9 64 63.7 0.3 0.6
Abernathy  07:15 AM 67.1 69.1 -2 64.5 64.2 0.2 0.8
Plainview  07:15 AM 67 69.6 -2.5 64.7 65.3 -0.6 0.8
Tahoka  07:15 AM 68.5 70.3 -1.8 65.9 64.6 1.2 0.8
Slaton  07:15 AM 68.4 69.5 -1.1 65.6 65.4 0.2 0.7
Levelland  07:10 AM 67.2 69 -1.8 64.5 64.5 -0 0.4
Roaring Springs  07:15 AM 68.9 69.3 -0.4 67.2 66.6 0.6 1.1
Floydada  07:15 AM 68.3 69.8 -1.5 64.9 64.1 0.8 1
Ralls  07:15 AM 68.7 69 -0.3 64.1 63.3 0.8 0.9
Brownfield  07:15 AM 68.6 69.9 -1.3 65.2 66.1 -1 0.6
Muleshoe  07:15 AM 63.8 63.8 0.1 62.1 60.6 1.5 0.3
Morton  07:15 AM 66 67.8 -1.7 62.7 63.4 -0.6 0.4
O'Donnell  07:15 AM 69.3 70.9 -1.6 63.8 63 0.8 0.8
Seagraves  07:15 AM 69 69.9 -0.8 64.6 64.3 0.3 0.5
Amherst  07:15 AM 66.2 66.7 -0.5 64.6 64.2 0.4 0.5
Plains  07:15 AM 66.8 67.9 -1.1 64 64 -0 0.1
Lamesa  07:15 AM 69.4 71.3 -1.9 65.7 65.3 0.4 0.7
Hart  07:15 AM 65.8 67.1 -1.3 64.1 64.5 -0.5 0.4
Friona  07:15 AM 65 66 -1.1 62.7 62.8 -0.1 0.7
Dimmitt  07:15 AM 65.4 66.1 -0.6 63.6 63.8 -0.2 0.4
Tulia  07:15 AM 65.8 67.2 -1.4 65.1 65.3 -0.2 0.6
Silverton  07:15 AM 67.2 68 -0.8 63.1 62.6 0.5 0.8
Post  07:15 AM 69.9 71.7 -1.8 65.7 64.7 0.9 1
Seminole  07:15 AM 68.5 69 -0.6 64.2 63.8 0.4 0.5
Gail  07:15 AM 71.6 73.8 -2.1 65 63.8 1.2 0.7
White River Lake  07:15 AM 69 70.7 -1.7 64.1 63.3 0.8 1
Graham  07:15 AM 70.2 71.3 -1.1 65.3 63.5 1.7 0.7
Sundown  07:15 AM 66.3 66.4 -0.1 63.6 63.6 -0 0.4
Anton  07:15 AM 67 69.3 -2.3 64.3 65 -0.8 0.6
Fluvanna  07:15 AM 71.6 73.6 -2 63.8 63.8 -0 1
Spur  07:15 AM 69.8 71.2 -1.4 65.3 65 0.4 1.2
Northwest Lubbock  07:15 AM 71.1 71.7 -0.6 65.2 65.3 -0.1 0.6
Guthrie  07:15 AM 71.2 73.2 -2.1 65.9 65.4 0.5 1.3
Clarendon  07:15 AM 69.8 70.5 -0.7 65.4 65 0.4 0.6
Paducah  07:15 AM 70.6 71.7 -1.1 66.6 65.8 0.8 1.3
Snyder  07:15 AM 70.3 71.7 -1.4 66.7 66.7 0.1 0.9
Memphis  07:15 AM 71.3 71.5 -0.3 68.1 66.9 1.2 0.7
Jayton  07:15 AM 70.6 73 -2.4 66.3 66.2 0.1 1.2
Pampa  07:15 AM 67.6 68.5 -0.9 65.8 65.8 -0 0.5
Aspermont  07:15 AM 72.7 74 -1.3 67.8 67.1 0.7 1.2
Hereford  07:15 AM 66.8 67.5 -0.7 63.7 64 -0.3 0.4
Goodlett  07:15 AM 73.1 75.4 -2.3 65.6 64.9 0.8 1.2
McLean  07:15 AM 69.4 70.2 -0.8 63.6 63.7 -0.1 0.6
Denver City  07:15 AM 65.7 66.5 -0.8 62.3 62.2 0.1 0
Lake Alan Henry  07:15 AM 71.8 74.3 -2.5 66.2 65.5 0.7 1.3
Wolfforth  07:15 AM 67.7 68.5 -0.7 64.4 64.3 0.2 0.7
Andrews  07:15 AM 69.7 70 -0.3 65.4 65.2 0.2 0.4
Turkey  07:15 AM 69.8 70.4 -0.6 67.9 68.8 -0.9 0.8
Childress  07:15 AM 70.6 72 -1.4 66.6 66.1 0.5 1
Tatum  07:15 AM 62.3 63.6 -1.3 59.1 59.4 -0.3 0.1
Northfield  07:15 AM 71 71.2 -0.1 66.5 65.7 0.7 1.1
Dora  07:15 AM 65.5 66.7 -1.2 61.2 61.4 -0.2 0
Northwest San Angelo  07:15 AM 72.8 75 -2.2 64.6 65.1 -0.5 1.3
Saint Lawrence  07:15 AM 68.3 70.4 -2 64.7 64.6 0.1 1.1
Haskell  07:15 AM 72.1 73.7 -1.7 66.3 65.6 0.7 1
Wall  07:15 AM 71.7 74.6 -3 66.7 67.7 -0.9 1.2
Seymour  07:15 AM 72.8 74.6 -1.8 67.4 66.7 0.7 1
Knox City  07:15 AM 73.8 74.7 -0.9 67.8 66.9 0.9 1.2
Guadalupe Mtns Park  07:15 AM 70.2 68.3 1.9 46 48.7 -2.8 -0.2
Caprock Canyons   07:15 AM 68.7 68.9 -0.1 66.9 66 0.9 0.9
Odell  07:15 AM 72.3 75.2 -2.8 68.6 67.7 0.9 1.2
Coyanosa  07:15 AM 70.6 70.9 -0.4 68.4 68.7 -0.4 0.2
Big Lake  07:15 AM 71.8 73.6 -1.8 67.3 66.3 0.9 1
Junction  07:15 AM 73 75.3 -2.3 68.5 67.6 0.8 0.8
Hobbs  07:15 AM 67.5 69.4 -1.9 65.4 63.4 2 0.1
Canadian  07:15 AM 71.1 72.5 -1.4 66.4 66.1 0.3 0.9
Palo Duro Canyon State Park Rim  07:15 AM 68.2 69.9 -1.7 64.2 64.1 0 0.4
Bootleg  07:15 AM 63.7 66.5 -2.8 62.2 63.2 -1 0.8
Sterling City  07:15 AM 71.1 73.4 -2.3 68 67.2 0.8 1.1
Mertzon  07:15 AM 72.1 74.4 -2.4 67.3 66.5 0.8 1.1
Persimmon Gap  07:15 AM 73.6 74.8 -1.2 64 63.3 0.7 0.7
Weinert  07:15 AM 73.3 74.6 -1.3 68.3 67.9 0.5 1
Claude 12 Southwest  07:15 AM 68.7 69.4 -0.7 66 65.2 0.8 0.5
Amarillo 7 South Southeast  07:15 AM 67.3 68.5 -1.2 65.4 65.3 0.1 0.4
Umbarger  07:15 AM 66.3 68.9 -2.7 64 64.7 -0.7 0.4
Lomax  07:15 AM 72.3 74.6 -2.3 66.6 65.7 0.9 0.9
Amarillo 9 North Northeast  07:15 AM 68.7 69.9 -1.2 68.7 66.5 2.2 0.8
Aiken 3 West Southwest  07:15 AM 67.3 69 -1.7 65 64.9 0 0.9
Sweetwater  07:15 AM 71.4 72.7 -1.3 67.9 67.7 0.2 1
Dozier  07:15 AM 71.2 72.2 -0.9 67.8 68.1 -0.3 0.5
Amarillo 15 North Northwest  07:15 AM 68.7 71 -2.3 67.7 66.4 1.3 0.7
Menard  07:15 AM 71.9 71.2 0.7 68.5 67.5 1 0.8
Tarzan  07:15 AM 70.7 72.6 -1.9 67 66.1 0.9 0.7
Goodnight  07:15 AM 68.1 68.7 -0.6 67.4 67.6 -0.1 0.5
Boys Ranch   07:15 AM 69.5 71.2 -1.7 66 66.1 -0.1 0.3
Fort McKavett  07:15 AM 67.9 70.1 -2.2 66.4 67 -0.6 1
Fort Chadbourne  07:15 AM 73.4 74 -0.6 67.5 68.1 -0.6 1.2
Palo Duro Canyon State Park Floor  07:15 AM 69.6 72.5 -2.8 65.8 65.5 0.3 0.6
Fort Lancaster  07:15 AM 74.7 75.9 -1.2 70.3 70 0.3 0.9
Dell City 1N  07:15 AM 65 70.8 -5.8 54.7 55.4 -0.7 0.9
Clyde  07:15 AM 71.6 71.8 -0.1 68.4 68.1 0.3 1.3
Snyder SSW  07:15 AM 71.4 73.7 -2.3 67.5 67.9 -0.4 0.9
Panhandle  07:15 AM 66.7 67.3 -0.6 65.9 65.7 0.2 0.5
Vigo Park  07:15 AM 66.7 67.5 -0.8 64.6 64.1 0.5 0.8
Welch  07:15 AM 69.9 70.8 -1 67 66.8 0.3 0.6
Throckmorton  07:15 AM 72.2 72.4 -0.2 69.9 68.8 1.2 1.1
Sierra Blanca  07:15 AM 71 73.8 -2.8 55 44.9 10.2 0.4
Fort Lewis CO  07:15 AM 43.7 49 -5.3 35.1 35.2 -0.1 0.3
New Home  07:15 AM 69.5 70.2 -0.7 66.1 66.1 -0 0.8
McCamey  07:10 AM 74 75.3 -1.4 69.3 68.5 0.7 0.8
Stamford  07:15 AM 73.5 74.3 -0.8 69.2 69.2 0 1.1
Crowell  07:15 AM 73.3 74.8 -1.5 68.7 68.4 0.3 1
Stinnett  07:15 AM 68.9 69.9 -1 65.3 65.8 -0.5 0.2
Colorado City  07:15 AM 70.8 72.9 -2.1 67.7 68.3 -0.6 1
Happy  07:15 AM 64.2 65.5 -1.3 63.4 63.8 -0.4 0.5
Endee  07:15 AM 70.4 71.2 -0.8 63.9 64.5 -0.6 1.4
JA Ranch  07:15 AM 67 66.7 0.4 66.4 65.9 0.5 0.7
Adrian  07:15 AM 65.2 66.1 -0.9 63.4 63.5 -0.1 0.9
Lesley  07:15 AM 70.9 71.4 -0.5 68.6 68.4 0.2 0.8
Earth  07:15 AM 65 66.4 -1.5 64.2 64.6 -0.4 0.2
Van Horn  07:15 AM 70.4 74.3 -4 58.7 56.5 2.2 0.6
Rotan  07:15 AM 72.1 73.3 -1.2 67.8 67.2 0.6 1.2
Fritch  07:15 AM 69.6 71.7 -2.1 64.7 65.2 -0.6 0.3
Estelline  07:15 AM 72.4 72.7 -0.2 68.2 67.2 1 0.9
Olton  07:15 AM 66.1 67.9 -1.8 63.6 64.5 -1 0.6

West Texas Mesonet Home   Site Map/Menu  NWS Lubbock Soil Data  Daily Summary Page  24hr Precip  72hr Precip  Google Plot